sensor_id;sensor_type;location;lat;lon;timestamp;pressure;altitude;pressure_sealevel;temperature;humidity
61394;BME280;48555;50.952;-0.120;2023-02-27T00:02:22;102472.19;;;3.50;64.15
61394;BME280;48555;50.952;-0.120;2023-02-27T00:04:47;102466.22;;;3.45;64.08
61394;BME280;48555;50.952;-0.120;2023-02-27T00:07:13;102469.66;;;3.46;64.14
61394;BME280;48555;50.952;-0.120;2023-02-27T00:09:38;102468.81;;;3.45;64.19
61394;BME280;48555;50.952;-0.120;2023-02-27T00:12:06;102468.81;;;3.44;64.08
61394;BME280;48555;50.952;-0.120;2023-02-27T00:14:32;102470.59;;;3.40;64.29
61394;BME280;48555;50.952;-0.120;2023-02-27T00:16:58;102468.94;;;3.36;64.60
61394;BME280;48555;50.952;-0.120;2023-02-27T00:19:23;102469.00;;;3.31;64.87
61394;BME280;48555;50.952;-0.120;2023-02-27T00:21:48;102467.50;;;3.15;65.62
61394;BME280;48555;50.952;-0.120;2023-02-27T00:24:14;102473.44;;;3.20;65.50
61394;BME280;48555;50.952;-0.120;2023-02-27T00:26:39;102463.13;;;3.18;65.58
61394;BME280;48555;50.952;-0.120;2023-02-27T00:29:05;102473.44;;;3.22;65.32
61394;BME280;48555;50.952;-0.120;2023-02-27T00:31:31;102470.97;;;3.11;65.56
61394;BME280;48555;50.952;-0.120;2023-02-27T00:33:57;102476.19;;;3.09;65.91
61394;BME280;48555;50.952;-0.120;2023-02-27T00:36:22;102455.50;;;3.08;65.87
61394;BME280;48555;50.952;-0.120;2023-02-27T00:38:47;102472.94;;;2.92;66.64
61394;BME280;48555;50.952;-0.120;2023-02-27T00:41:14;102468.56;;;2.97;66.27
61394;BME280;48555;50.952;-0.120;2023-02-27T00:43:39;102474.66;;;2.93;66.85
61394;BME280;48555;50.952;-0.120;2023-02-27T00:46:05;102466.16;;;2.82;67.13
61394;BME280;48555;50.952;-0.120;2023-02-27T00:48:30;102469.47;;;2.93;66.92
61394;BME280;48555;50.952;-0.120;2023-02-27T00:50:56;102466.94;;;2.91;67.05
61394;BME280;48555;50.952;-0.120;2023-02-27T00:53:21;102471.19;;;2.94;67.05
61394;BME280;48555;50.952;-0.120;2023-02-27T00:55:47;102474.53;;;3.02;66.66
61394;BME280;48555;50.952;-0.120;2023-02-27T00:58:12;102470.16;;;3.07;66.53
61394;BME280;48555;50.952;-0.120;2023-02-27T01:00:37;102479.59;;;3.11;66.50
61394;BME280;48555;50.952;-0.120;2023-02-27T01:03:03;102483.78;;;3.20;66.07
61394;BME280;48555;50.952;-0.120;2023-02-27T01:05:29;102478.69;;;3.14;66.43
61394;BME280;48555;50.952;-0.120;2023-02-27T01:07:54;102476.06;;;3.17;66.20
61394;BME280;48555;50.952;-0.120;2023-02-27T01:10:19;102474.41;;;3.11;66.62
61394;BME280;48555;50.952;-0.120;2023-02-27T01:12:45;102457.44;;;2.92;66.99
61394;BME280;48555;50.952;-0.120;2023-02-27T01:15:11;102471.19;;;2.94;67.09
61394;BME280;48555;50.952;-0.120;2023-02-27T01:17:37;102471.19;;;2.94;67.40
61394;BME280;48555;50.952;-0.120;2023-02-27T01:20:04;102467.72;;;2.98;67.34
61394;BME280;48555;50.952;-0.120;2023-02-27T01:22:30;102465.94;;;3.03;67.19
61394;BME280;48555;50.952;-0.120;2023-02-27T01:24:57;102471.09;;;3.02;67.08
61394;BME280;48555;50.952;-0.120;2023-02-27T01:27:22;102470.22;;;3.03;67.24
61394;BME280;48555;50.952;-0.120;2023-02-27T01:29:47;102475.28;;;3.12;67.16
61394;BME280;48555;50.952;-0.120;2023-02-27T01:32:13;102472.06;;;2.93;67.55
61394;BME280;48555;50.952;-0.120;2023-02-27T01:34:38;102471.94;;;3.02;67.66
61394;BME280;48555;50.952;-0.120;2023-02-27T01:37:03;102474.34;;;3.17;67.27
61394;BME280;48555;50.952;-0.120;2023-02-27T01:39:29;102466.00;;;2.95;67.75
61394;BME280;48555;50.952;-0.120;2023-02-27T01:41:56;102464.16;;;3.07;67.51
61394;BME280;48555;50.952;-0.120;2023-02-27T01:44:21;102460.69;;;3.08;67.60
61394;BME280;48555;50.952;-0.120;2023-02-27T01:46:46;102453.53;;;3.28;67.06
61394;BME280;48555;50.952;-0.120;2023-02-27T01:49:19;102450.84;;;3.34;66.53
61394;BME280;48555;50.952;-0.120;2023-02-27T01:51:49;102448.19;;;3.39;66.57
61394;BME280;48555;50.952;-0.120;2023-02-27T01:54:20;102447.22;;;3.46;66.28
61394;BME280;48555;50.952;-0.120;2023-02-27T01:56:46;102442.00;;;3.51;66.20
61394;BME280;48555;50.952;-0.120;2023-02-27T01:59:12;102443.69;;;3.52;65.92
61394;BME280;48555;50.952;-0.120;2023-02-27T02:01:38;102434.19;;;3.52;65.85
61394;BME280;48555;50.952;-0.120;2023-02-27T02:04:14;102439.38;;;3.52;65.93
61394;BME280;48555;50.952;-0.120;2023-02-27T02:06:46;102444.53;;;3.52;65.62
61394;BME280;48555;50.952;-0.120;2023-02-27T02:09:12;102434.19;;;3.54;65.50
61394;BME280;48555;50.952;-0.120;2023-02-27T02:11:40;102431.56;;;3.55;65.59
61394;BME280;48555;50.952;-0.120;2023-02-27T02:14:06;102431.56;;;3.57;65.62
61394;BME280;48555;50.952;-0.120;2023-02-27T02:19:19;102436.66;;;3.61;65.16
61394;BME280;48555;50.952;-0.120;2023-02-27T02:27:02;102437.28;;;3.76;64.78
61394;BME280;48555;50.952;-0.120;2023-02-27T02:33:02;102427.63;;;3.87;64.58
61394;BME280;48555;50.952;-0.120;2023-02-27T02:44:28;102422.81;;;3.66;66.32
61394;BME280;48555;50.952;-0.120;2023-02-27T02:47:18;102422.69;;;3.72;65.56
61394;BME280;48555;50.952;-0.120;2023-02-27T02:50:05;102421.84;;;3.71;65.76
61394;BME280;48555;50.952;-0.120;2023-02-27T02:55:26;102433.97;;;3.68;65.92
61394;BME280;48555;50.952;-0.120;2023-02-27T02:58:09;102425.50;;;3.58;66.20
61394;BME280;48555;50.952;-0.120;2023-02-27T03:00:42;102427.75;;;3.21;67.70
61394;BME280;48555;50.952;-0.120;2023-02-27T03:03:38;102421.75;;;3.20;67.53
61394;BME280;48555;50.952;-0.120;2023-02-27T03:06:10;102416.75;;;3.08;67.98
61394;BME280;48555;50.952;-0.120;2023-02-27T03:08:45;102421.06;;;3.06;68.11
61394;BME280;48555;50.952;-0.120;2023-02-27T03:11:11;102419.28;;;3.12;68.20
61394;BME280;48555;50.952;-0.120;2023-02-27T03:13:43;102416.06;;;2.93;68.59
61394;BME280;48555;50.952;-0.120;2023-02-27T03:16:16;102419.75;;;2.76;69.18
61394;BME280;48555;50.952;-0.120;2023-02-27T03:18:49;102421.84;;;2.43;70.40
61394;BME280;48555;50.952;-0.120;2023-02-27T03:21:38;102428.66;;;2.50;70.46
61394;BME280;48555;50.952;-0.120;2023-02-27T03:24:07;102425.63;;;2.87;69.24
61394;BME280;48555;50.952;-0.120;2023-02-27T03:26:38;102430.91;;;2.76;69.65
61394;BME280;48555;50.952;-0.120;2023-02-27T03:29:08;102434.38;;;2.77;69.44
61394;BME280;48555;50.952;-0.120;2023-02-27T03:31:40;102433.34;;;2.91;69.50
61394;BME280;48555;50.952;-0.120;2023-02-27T03:34:32;102430.75;;;2.90;69.18
61394;BME280;48555;50.952;-0.120;2023-02-27T03:39:37;102426.31;;;3.00;68.51
61394;BME280;48555;50.952;-0.120;2023-02-27T03:47:19;102430.81;;;2.85;69.24
61394;BME280;48555;50.952;-0.120;2023-02-27T03:49:44;102429.88;;;2.91;69.33
61394;BME280;48555;50.952;-0.120;2023-02-27T03:52:10;102427.44;;;2.79;69.46
61394;BME280;48555;50.952;-0.120;2023-02-27T03:54:42;102420.47;;;2.87;69.58
61394;BME280;48555;50.952;-0.120;2023-02-27T03:57:10;102422.00;;;3.03;68.99
61394;BME280;48555;50.952;-0.120;2023-02-27T03:59:39;102425.59;;;2.91;69.51
61394;BME280;48555;50.952;-0.120;2023-02-27T04:02:05;102424.09;;;2.72;70.15
61394;BME280;48555;50.952;-0.120;2023-02-27T04:04:31;102423.41;;;2.59;70.36
61394;BME280;48555;50.952;-0.120;2023-02-27T04:07:04;102421.72;;;2.54;70.49
61394;BME280;48555;50.952;-0.120;2023-02-27T04:18:24;102429.16;;;2.81;69.90
61394;BME280;48555;50.952;-0.120;2023-02-27T04:21:20;102441.25;;;2.78;70.19
61394;BME280;48555;50.952;-0.120;2023-02-27T04:24:09;102443.94;;;2.68;70.46
61394;BME280;48555;50.952;-0.120;2023-02-27T04:26:41;102452.47;;;2.73;70.12
61394;BME280;48555;50.952;-0.120;2023-02-27T04:29:21;102441.34;;;2.70;70.40
61394;BME280;48555;50.952;-0.120;2023-02-27T04:31:57;102441.41;;;2.65;70.83
61394;BME280;48555;50.952;-0.120;2023-02-27T04:34:49;102436.31;;;2.59;70.96
61394;BME280;48555;50.952;-0.120;2023-02-27T04:37:26;102441.47;;;2.58;70.87
61394;BME280;48555;50.952;-0.120;2023-02-27T04:40:10;102437.13;;;2.63;71.02
61394;BME280;48555;50.952;-0.120;2023-02-27T04:42:39;102434.81;;;2.38;71.85
61394;BME280;48555;50.952;-0.120;2023-02-27T04:45:10;102431.25;;;2.47;71.74
61394;BME280;48555;50.952;-0.120;2023-02-27T04:48:01;102430.41;;;2.48;71.67
61394;BME280;48555;50.952;-0.120;2023-02-27T04:50:30;102433.84;;;2.47;71.87
61394;BME280;48555;50.952;-0.120;2023-02-27T04:53:03;102439.19;;;2.28;72.16
61394;BME280;48555;50.952;-0.120;2023-02-27T04:55:38;102437.59;;;2.17;72.63
61394;BME280;48555;50.952;-0.120;2023-02-27T04:58:14;102445.28;;;2.23;72.72
61394;BME280;48555;50.952;-0.120;2023-02-27T05:00:46;102444.97;;;2.52;71.63
61394;BME280;48555;50.952;-0.120;2023-02-27T05:03:21;102448.25;;;2.68;70.88
61394;BME280;48555;50.952;-0.120;2023-02-27T05:05:49;102448.31;;;2.65;70.94
61394;BME280;48555;50.952;-0.120;2023-02-27T05:08:32;102449.13;;;2.67;71.05
61394;BME280;48555;50.952;-0.120;2023-02-27T05:11:10;102449.03;;;2.73;70.98
61394;BME280;48555;50.952;-0.120;2023-02-27T05:14:33;102439.00;;;2.47;71.71
61394;BME280;48555;50.952;-0.120;2023-02-27T05:16:46;102430.50;;;2.39;71.68
61394;BME280;48555;50.952;-0.120;2023-02-27T05:19:13;102440.72;;;2.48;71.71
61394;BME280;48555;50.952;-0.120;2023-02-27T05:21:47;102437.16;;;2.60;71.40
61394;BME280;48555;50.952;-0.120;2023-02-27T05:27:15;102441.31;;;2.71;70.56
61394;BME280;48555;50.952;-0.120;2023-02-27T05:29:49;102440.47;;;2.71;70.75
61394;BME280;48555;50.952;-0.120;2023-02-27T05:35:22;102431.75;;;2.80;70.24
61394;BME280;48555;50.952;-0.120;2023-02-27T05:38:03;102431.78;;;2.78;70.07
61394;BME280;48555;50.952;-0.120;2023-02-27T05:40:37;102439.44;;;2.84;70.20
61394;BME280;48555;50.952;-0.120;2023-02-27T05:43:26;102431.72;;;2.83;70.50
61394;BME280;48555;50.952;-0.120;2023-02-27T05:45:57;102423.97;;;2.81;70.46
61394;BME280;48555;50.952;-0.120;2023-02-27T05:48:27;102435.94;;;2.90;70.43
61394;BME280;48555;50.952;-0.120;2023-02-27T05:50:55;102423.00;;;2.91;69.97
61394;BME280;48555;50.952;-0.120;2023-02-27T05:53:29;102440.13;;;3.00;69.73
61394;BME280;48555;50.952;-0.120;2023-02-27T05:55:58;102445.16;;;3.09;69.34
61394;BME280;48555;50.952;-0.120;2023-02-27T05:58:26;102451.09;;;3.16;69.39
61394;BME280;48555;50.952;-0.120;2023-02-27T06:00:58;102458.75;;;3.24;68.92
61394;BME280;48555;50.952;-0.120;2023-02-27T06:03:28;102460.38;;;3.31;68.61
61394;BME280;48555;50.952;-0.120;2023-02-27T06:05:58;102468.09;;;3.34;68.47
61394;BME280;48555;50.952;-0.120;2023-02-27T06:08:24;102472.38;;;3.36;68.36
61394;BME280;48555;50.952;-0.120;2023-02-27T06:10:50;102471.44;;;3.42;68.47
61394;BME280;48555;50.952;-0.120;2023-02-27T06:13:16;102468.81;;;3.45;68.19
61394;BME280;48555;50.952;-0.120;2023-02-27T06:15:43;102471.25;;;3.53;68.10
61394;BME280;48555;50.952;-0.120;2023-02-27T06:18:09;102472.94;;;3.55;68.00
61394;BME280;48555;50.952;-0.120;2023-02-27T06:20:35;102482.41;;;3.59;68.07
61394;BME280;48555;50.952;-0.120;2023-02-27T06:23:00;102474.59;;;3.62;67.85
61394;BME280;48555;50.952;-0.120;2023-02-27T06:25:26;102484.91;;;3.64;68.00
61394;BME280;48555;50.952;-0.120;2023-02-27T06:27:51;102487.56;;;3.59;67.76
61394;BME280;48555;50.952;-0.120;2023-02-27T06:30:17;102498.94;;;3.48;68.23
61394;BME280;48555;50.952;-0.120;2023-02-27T06:32:42;102505.19;;;3.31;68.13
61394;BME280;48555;50.952;-0.120;2023-02-27T06:35:08;102502.69;;;3.27;68.60
61394;BME280;48555;50.952;-0.120;2023-02-27T06:37:33;102498.31;;;3.30;68.55
61394;BME280;48555;50.952;-0.120;2023-02-27T06:39:59;102503.50;;;3.29;68.91
61394;BME280;48555;50.952;-0.120;2023-02-27T06:42:24;102498.41;;;3.24;69.43
61394;BME280;48555;50.952;-0.120;2023-02-27T06:44:50;102501.06;;;3.18;69.56
61394;BME280;48555;50.952;-0.120;2023-02-27T06:47:15;102508.09;;;3.07;69.90
61394;BME280;48555;50.952;-0.120;2023-02-27T06:49:41;102510.91;;;2.88;70.35
61394;BME280;48555;50.952;-0.120;2023-02-27T06:52:06;102510.22;;;2.71;71.27
61394;BME280;48555;50.952;-0.120;2023-02-27T06:54:31;102505.38;;;2.39;72.57
61394;BME280;48555;50.952;-0.120;2023-02-27T06:56:58;102518.47;;;2.14;73.79
61394;BME280;48555;50.952;-0.120;2023-02-27T06:59:23;102514.84;;;2.37;73.29
61394;BME280;48555;50.952;-0.120;2023-02-27T07:01:49;102521.00;;;2.20;74.09
61394;BME280;48555;50.952;-0.120;2023-02-27T07:04:14;102524.31;;;2.36;73.85
61394;BME280;48555;50.952;-0.120;2023-02-27T07:06:40;102521.69;;;2.41;73.91
61394;BME280;48555;50.952;-0.120;2023-02-27T07:09:06;102522.53;;;2.43;73.63
61394;BME280;48555;50.952;-0.120;2023-02-27T07:11:31;102528.50;;;2.51;73.66
61394;BME280;48555;50.952;-0.120;2023-02-27T07:13:57;102524.00;;;2.71;73.31
61394;BME280;48555;50.952;-0.120;2023-02-27T07:16:22;102523.16;;;2.68;73.13
61394;BME280;48555;50.952;-0.120;2023-02-27T07:18:48;102529.03;;;2.82;72.54
61394;BME280;48555;50.952;-0.120;2023-02-27T07:21:13;102537.41;;;3.03;72.04
61394;BME280;48555;50.952;-0.120;2023-02-27T07:23:40;102543.31;;;3.14;71.33
61394;BME280;48555;50.952;-0.120;2023-02-27T07:26:05;102546.66;;;3.24;70.99
61394;BME280;48555;50.952;-0.120;2023-02-27T07:28:31;102548.25;;;3.34;70.81
61394;BME280;48555;50.952;-0.120;2023-02-27T07:30:56;102543.84;;;3.42;70.31
61394;BME280;48555;50.952;-0.120;2023-02-27T07:33:21;102542.03;;;3.50;70.25
61394;BME280;48555;50.952;-0.120;2023-02-27T07:35:48;102548.94;;;3.47;70.49
61394;BME280;48555;50.952;-0.120;2023-02-27T07:38:13;102541.22;;;3.44;70.35
61394;BME280;48555;50.952;-0.120;2023-02-27T07:40:39;102536.84;;;3.50;70.36
61394;BME280;48555;50.952;-0.120;2023-02-27T07:43:04;102542.88;;;3.51;70.41
61394;BME280;48555;50.952;-0.120;2023-02-27T07:45:29;102531.84;;;3.35;70.79
61394;BME280;48555;50.952;-0.120;2023-02-27T07:47:54;102538.75;;;3.36;70.52
61394;BME280;48555;50.952;-0.120;2023-02-27T07:50:20;102540.41;;;3.40;70.58
61394;BME280;48555;50.952;-0.120;2023-02-27T07:52:45;102549.84;;;3.44;70.61
61394;BME280;48555;50.952;-0.120;2023-02-27T07:55:12;102536.84;;;3.50;70.43
61394;BME280;48555;50.952;-0.120;2023-02-27T07:57:37;102543.72;;;3.51;70.54
61394;BME280;48555;50.952;-0.120;2023-02-27T08:00:07;102540.63;;;3.25;71.26
61394;BME280;48555;50.952;-0.120;2023-02-27T08:02:33;102551.56;;;3.45;70.85
61394;BME280;48555;50.952;-0.120;2023-02-27T08:04:59;102549.47;;;3.72;70.76
61394;BME280;48555;50.952;-0.120;2023-02-27T08:07:24;102560.94;;;4.13;70.27
61394;BME280;48555;50.952;-0.120;2023-02-27T08:09:50;102553.41;;;4.50;69.54
61394;BME280;48555;50.952;-0.120;2023-02-27T08:12:15;102553.06;;;4.70;68.65
61394;BME280;48555;50.952;-0.120;2023-02-27T08:14:41;102553.66;;;4.84;67.96
61394;BME280;48555;50.952;-0.120;2023-02-27T08:17:06;102555.47;;;4.81;66.81
61394;BME280;48555;50.952;-0.120;2023-02-27T08:19:32;102554.53;;;4.85;66.92
61394;BME280;48555;50.952;-0.120;2023-02-27T08:21:57;102552.75;;;4.88;66.89
61394;BME280;48555;50.952;-0.120;2023-02-27T08:24:23;102551.81;;;5.75;65.86
61394;BME280;48555;50.952;-0.120;2023-02-27T08:26:48;102546.72;;;6.45;63.83
61394;BME280;48555;50.952;-0.120;2023-02-27T08:29:14;102548.84;;;7.25;61.60
61394;BME280;48555;50.952;-0.120;2023-02-27T08:31:39;102548.25;;;7.75;59.16
61394;BME280;48555;50.952;-0.120;2023-02-27T08:34:04;102554.69;;;7.91;57.96
61394;BME280;48555;50.952;-0.120;2023-02-27T08:36:30;102556.91;;;7.47;57.35
61394;BME280;48555;50.952;-0.120;2023-02-27T08:38:56;102549.09;;;7.76;57.76
61394;BME280;48555;50.952;-0.120;2023-02-27T08:41:21;102557.53;;;8.10;57.07
61394;BME280;48555;50.952;-0.120;2023-02-27T08:43:47;102551.63;;;8.32;56.47
61394;BME280;48555;50.952;-0.120;2023-02-27T08:46:12;102558.44;;;8.36;56.44
61394;BME280;48555;50.952;-0.120;2023-02-27T08:48:38;102556.16;;;8.53;56.52
61394;BME280;48555;50.952;-0.120;2023-02-27T08:51:03;102555.59;;;8.44;55.67
61394;BME280;48555;50.952;-0.120;2023-02-27T08:53:29;102558.38;;;8.39;56.39
61394;BME280;48555;50.952;-0.120;2023-02-27T08:55:54;102559.91;;;8.18;56.32
61394;BME280;48555;50.952;-0.120;2023-02-27T08:58:20;102561.44;;;7.97;56.99
61394;BME280;48555;50.952;-0.120;2023-02-27T09:00:46;102559.50;;;7.76;57.63
61394;BME280;48555;50.952;-0.120;2023-02-27T09:03:11;102557.47;;;7.57;58.17
61394;BME280;48555;50.952;-0.120;2023-02-27T09:05:37;102548.72;;;7.30;58.76
61394;BME280;48555;50.952;-0.120;2023-02-27T09:08:03;102552.88;;;7.06;59.44
61394;BME280;48555;50.952;-0.120;2023-02-27T09:10:30;102559.56;;;6.83;60.32
61394;BME280;48555;50.952;-0.120;2023-02-27T09:12:57;102554.47;;;6.79;60.96
61394;BME280;48555;50.952;-0.120;2023-02-27T09:15:22;102565.69;;;6.81;61.81
61394;BME280;48555;50.952;-0.120;2023-02-27T09:17:48;102559.31;;;6.93;61.90
61394;BME280;48555;50.952;-0.120;2023-02-27T09:20:13;102558.03;;;7.08;61.49
61394;BME280;48555;50.952;-0.120;2023-02-27T09:22:40;102555.34;;;7.11;61.75
61394;BME280;48555;50.952;-0.120;2023-02-27T09:25:05;102560.25;;;7.21;61.70
61394;BME280;48555;50.952;-0.120;2023-02-27T09:27:31;102559.31;;;7.24;61.63
61394;BME280;48555;50.952;-0.120;2023-02-27T09:29:57;102572.78;;;7.38;61.86
61394;BME280;48555;50.952;-0.120;2023-02-27T09:32:24;102554.31;;;7.46;61.77
61394;BME280;48555;50.952;-0.120;2023-02-27T09:34:49;102557.94;;;7.42;61.50
61394;BME280;48555;50.952;-0.120;2023-02-27T09:37:15;102558.38;;;7.56;61.90
61394;BME280;48555;50.952;-0.120;2023-02-27T09:39:41;102557.00;;;7.72;61.22
61394;BME280;48555;50.952;-0.120;2023-02-27T09:42:16;102556.28;;;7.95;61.08
61394;BME280;48555;50.952;-0.120;2023-02-27T09:44:47;102551.56;;;7.80;60.60
61394;BME280;48555;50.952;-0.120;2023-02-27T09:47:22;102560.13;;;8.12;59.94
61394;BME280;48555;50.952;-0.120;2023-02-27T09:50:00;102558.91;;;8.22;58.68
61394;BME280;48555;50.952;-0.120;2023-02-27T09:52:29;102559.31;;;8.10;58.79
61394;BME280;48555;50.952;-0.120;2023-02-27T09:54:55;102562.13;;;8.02;58.71
61394;BME280;48555;50.952;-0.120;2023-02-27T09:57:36;102552.38;;;8.09;59.06
61394;BME280;48555;50.952;-0.120;2023-02-27T10:00:06;102559.09;;;8.16;58.88
61394;BME280;48555;50.952;-0.120;2023-02-27T10:07:58;102567.72;;;8.18;59.26
61394;BME280;48555;50.952;-0.120;2023-02-27T10:10:43;102560.88;;;8.42;58.56
61394;BME280;48555;50.952;-0.120;2023-02-27T10:16:14;102564.56;;;8.35;58.39
61394;BME280;48555;50.952;-0.120;2023-02-27T10:18:56;102567.34;;;8.29;58.96
61394;BME280;48555;50.952;-0.120;2023-02-27T10:21:32;102569.56;;;8.43;58.19
61394;BME280;48555;50.952;-0.120;2023-02-27T10:26:39;102560.88;;;8.67;58.00
61394;BME280;48555;50.952;-0.120;2023-02-27T10:29:30;102554.50;;;8.76;57.78
61394;BME280;48555;50.952;-0.120;2023-02-27T10:32:09;102549.59;;;8.67;58.30
61394;BME280;48555;50.952;-0.120;2023-02-27T10:34:38;102561.00;;;8.89;57.94
61394;BME280;48555;50.952;-0.120;2023-02-27T10:37:04;102557.44;;;8.92;57.30
61394;BME280;48555;50.952;-0.120;2023-02-27T10:39:42;102559.41;;;9.08;57.33
61394;BME280;48555;50.952;-0.120;2023-02-27T10:42:11;102574.22;;;8.59;56.99
61394;BME280;48555;50.952;-0.120;2023-02-27T10:44:38;102556.63;;;8.38;57.86
61394;BME280;48555;50.952;-0.120;2023-02-27T10:47:04;102549.63;;;8.13;58.02
61394;BME280;48555;50.952;-0.120;2023-02-27T10:49:30;102549.59;;;8.15;58.25
61394;BME280;48555;50.952;-0.120;2023-02-27T10:52:09;102563.41;;;8.17;57.73
61394;BME280;48555;50.952;-0.120;2023-02-27T10:54:36;102556.78;;;8.07;57.79
61394;BME280;48555;50.952;-0.120;2023-02-27T10:57:06;102558.75;;;8.00;58.07
61394;BME280;48555;50.952;-0.120;2023-02-27T10:59:52;102561.00;;;8.11;57.61
61394;BME280;48555;50.952;-0.120;2023-02-27T11:05:28;102562.59;;;7.88;57.96
61394;BME280;48555;50.952;-0.120;2023-02-27T11:07:55;102558.09;;;7.65;58.27
61394;BME280;48555;50.952;-0.120;2023-02-27T11:10:33;102557.75;;;7.76;57.96
61394;BME280;48555;50.952;-0.120;2023-02-27T11:13:10;102564.31;;;7.88;57.88
61394;BME280;48555;50.952;-0.120;2023-02-27T11:15:42;102566.94;;;7.88;58.06
61394;BME280;48555;50.952;-0.120;2023-02-27T11:18:19;102572.59;;;7.74;57.98
61394;BME280;48555;50.952;-0.120;2023-02-27T11:20:46;102567.38;;;7.74;57.88
61394;BME280;48555;50.952;-0.120;2023-02-27T11:23:19;102573.44;;;7.74;57.51
61394;BME280;48555;50.952;-0.120;2023-02-27T11:25:45;102570.19;;;7.66;57.91
61394;BME280;48555;50.952;-0.120;2023-02-27T11:30:37;102560.88;;;7.87;57.79
61394;BME280;48555;50.952;-0.120;2023-02-27T11:33:03;102571.06;;;7.95;57.19
61394;BME280;48555;50.952;-0.120;2023-02-27T11:35:38;102568.72;;;8.14;57.09
61394;BME280;48555;50.952;-0.120;2023-02-27T11:38:06;102565.78;;;8.25;56.38
61394;BME280;48555;50.952;-0.120;2023-02-27T11:40:35;102565.25;;;8.13;56.07
61394;BME280;48555;50.952;-0.120;2023-02-27T11:43:15;102563.41;;;8.17;56.18
61394;BME280;48555;50.952;-0.120;2023-02-27T11:45:42;102557.50;;;8.12;56.37
61394;BME280;48555;50.952;-0.120;2023-02-27T11:56:07;102565.84;;;7.95;57.41
61394;BME280;48555;50.952;-0.120;2023-02-27T11:58:39;102573.47;;;8.01;57.53
61394;BME280;48555;50.952;-0.120;2023-02-27T12:01:19;102563.88;;;8.03;57.75
61394;BME280;48555;50.952;-0.120;2023-02-27T12:06:51;102547.84;;;8.15;58.27
61394;BME280;48555;50.952;-0.120;2023-02-27T12:12:34;102546.50;;;8.55;57.20
61394;BME280;48555;50.952;-0.120;2023-02-27T12:15:03;102546.94;;;8.43;57.09
61394;BME280;48555;50.952;-0.120;2023-02-27T12:17:43;102536.50;;;8.43;57.41
61394;BME280;48555;50.952;-0.120;2023-02-27T12:20:32;102544.38;;;8.67;56.59
61394;BME280;48555;50.952;-0.120;2023-02-27T12:23:01;102542.09;;;8.57;56.80
61394;BME280;48555;50.952;-0.120;2023-02-27T12:25:39;102540.97;;;8.64;57.27
61394;BME280;48555;50.952;-0.120;2023-02-27T12:28:31;102547.34;;;8.56;56.62
61394;BME280;48555;50.952;-0.120;2023-02-27T12:34:21;102536.50;;;8.43;56.84
61394;BME280;48555;50.952;-0.120;2023-02-27T12:36:51;102527.28;;;8.33;56.67
61394;BME280;48555;50.952;-0.120;2023-02-27T12:39:19;102526.03;;;8.45;56.90
61394;BME280;48555;50.952;-0.120;2023-02-27T12:49:55;102522.56;;;8.44;57.25
61394;BME280;48555;50.952;-0.120;2023-02-27T12:58:09;102524.28;;;8.45;56.89
61394;BME280;48555;50.952;-0.120;2023-02-27T13:01:00;102523.47;;;8.43;56.33
61394;BME280;48555;50.952;-0.120;2023-02-27T13:14:39;102500.88;;;7.90;60.00
61394;BME280;48555;50.952;-0.120;2023-02-27T13:19:49;102487.41;;;8.04;59.40
61394;BME280;48555;50.952;-0.120;2023-02-27T13:24:54;102483.97;;;8.02;59.05
61394;BME280;48555;50.952;-0.120;2023-02-27T13:27:25;102487.72;;;7.95;59.23
61394;BME280;48555;50.952;-0.120;2023-02-27T13:30:14;102478.22;;;7.92;59.25
61394;BME280;48555;50.952;-0.120;2023-02-27T13:37:49;102469.22;;;8.54;58.21
61394;BME280;48555;50.952;-0.120;2023-02-27T13:40:30;102473.63;;;8.26;58.79
61394;BME280;48555;50.952;-0.120;2023-02-27T13:43:03;102479.69;;;8.53;58.47
61394;BME280;48555;50.952;-0.120;2023-02-27T13:45:56;102477.47;;;8.15;59.84
61394;BME280;48555;50.952;-0.120;2023-02-27T13:48:41;102488.63;;;8.19;60.09
61394;BME280;48555;50.952;-0.120;2023-02-27T13:51:09;102512.94;;;8.19;60.36
61394;BME280;48555;50.952;-0.120;2023-02-27T13:54:21;102489.00;;;8.08;60.49
61394;BME280;48555;50.952;-0.120;2023-02-27T13:59:22;102476.47;;;8.19;58.69
61394;BME280;48555;50.952;-0.120;2023-02-27T14:02:00;102481.56;;;8.23;57.81
61394;BME280;48555;50.952;-0.120;2023-02-27T14:04:30;102486.06;;;8.17;58.08
61394;BME280;48555;50.952;-0.120;2023-02-27T14:07:18;102484.72;;;8.06;58.08
61394;BME280;48555;50.952;-0.120;2023-02-27T14:09:47;102485.72;;;8.03;58.27
61394;BME280;48555;50.952;-0.120;2023-02-27T14:12:43;102483.38;;;7.94;58.27
61394;BME280;48555;50.952;-0.120;2023-02-27T14:17:45;102478.06;;;7.97;57.74
61394;BME280;48555;50.952;-0.120;2023-02-27T14:22:37;102481.97;;;8.10;57.67
61394;BME280;48555;50.952;-0.120;2023-02-27T14:27:55;102484.34;;;8.45;57.30
61394;BME280;48555;50.952;-0.120;2023-02-27T14:30:28;102487.25;;;8.60;56.76
61394;BME280;48555;50.952;-0.120;2023-02-27T14:33:09;102489.41;;;8.73;55.22
61394;BME280;48555;50.952;-0.120;2023-02-27T14:35:35;102494.53;;;8.51;55.95
61394;BME280;48555;50.952;-0.120;2023-02-27T14:38:10;102491.44;;;8.39;56.11
61394;BME280;48555;50.952;-0.120;2023-02-27T14:40:47;102493.84;;;8.46;55.28
61394;BME280;48555;50.952;-0.120;2023-02-27T14:43:35;102493.84;;;8.46;55.11
61394;BME280;48555;50.952;-0.120;2023-02-27T14:46:10;102482.25;;;8.54;54.85
61394;BME280;48555;50.952;-0.120;2023-02-27T14:48:37;102481.50;;;8.51;54.97
61394;BME280;48555;50.952;-0.120;2023-02-27T14:51:04;102489.91;;;8.32;55.46
61394;BME280;48555;50.952;-0.120;2023-02-27T14:53:30;102474.34;;;8.31;55.52
61394;BME280;48555;50.952;-0.120;2023-02-27T14:55:57;102468.38;;;8.27;55.97
61394;BME280;48555;50.952;-0.120;2023-02-27T14:58:24;102466.56;;;8.29;56.05
61394;BME280;48555;50.952;-0.120;2023-02-27T15:01:06;102475.69;;;8.43;56.00
61394;BME280;48555;50.952;-0.120;2023-02-27T15:03:47;102473.03;;;8.44;55.03
61394;BME280;48555;50.952;-0.120;2023-02-27T15:06:19;102453.94;;;8.44;54.65
61394;BME280;48555;50.952;-0.120;2023-02-27T15:08:51;102467.19;;;8.11;55.47
61394;BME280;48555;50.952;-0.120;2023-02-27T15:11:19;102467.09;;;8.14;55.63
61394;BME280;48555;50.952;-0.120;2023-02-27T15:13:46;102472.94;;;8.20;55.55